sensor_id;sensor_type;location;lat;lon;timestamp;P1;durP1;ratioP1;P2;durP2;ratioP2
78796;SDS011;68145;52.514;13.460;2023-06-22T00:01:50;13.23;;;9.57;;
78796;SDS011;68145;52.514;13.460;2023-06-22T00:04:16;10.90;;;8.60;;
78796;SDS011;68145;52.514;13.460;2023-06-22T00:06:42;10.23;;;8.27;;
78796;SDS011;68145;52.514;13.460;2023-06-22T00:09:08;11.93;;;8.48;;
78796;SDS011;68145;52.514;13.460;2023-06-22T00:11:35;11.80;;;9.02;;
78796;SDS011;68145;52.514;13.460;2023-06-22T00:14:02;11.07;;;8.70;;
78796;SDS011;68145;52.514;13.460;2023-06-22T00:16:28;11.60;;;8.25;;
78796;SDS011;68145;52.514;13.460;2023-06-22T00:18:54;12.40;;;8.55;;
78796;SDS011;68145;52.514;13.460;2023-06-22T00:21:20;11.77;;;8.60;;
78796;SDS011;68145;52.514;13.460;2023-06-22T00:23:46;10.60;;;8.30;;
78796;SDS011;68145;52.514;13.460;2023-06-22T00:26:12;10.75;;;8.27;;
78796;SDS011;68145;52.514;13.460;2023-06-22T00:28:39;11.52;;;8.05;;
78796;SDS011;68145;52.514;13.460;2023-06-22T00:31:05;9.93;;;7.65;;
78796;SDS011;68145;52.514;13.460;2023-06-22T00:33:31;10.77;;;9.23;;
78796;SDS011;68145;52.514;13.460;2023-06-22T00:35:57;10.98;;;7.95;;
78796;SDS011;68145;52.514;13.460;2023-06-22T00:38:23;9.65;;;7.10;;
78796;SDS011;68145;52.514;13.460;2023-06-22T00:40:49;9.55;;;7.60;;
78796;SDS011;68145;52.514;13.460;2023-06-22T00:43:15;9.77;;;7.72;;
78796;SDS011;68145;52.514;13.460;2023-06-22T00:45:41;10.25;;;7.15;;
78796;SDS011;68145;52.514;13.460;2023-06-22T00:48:07;10.70;;;7.88;;
78796;SDS011;68145;52.514;13.460;2023-06-22T00:50:34;10.02;;;7.65;;
78796;SDS011;68145;52.514;13.460;2023-06-22T00:53:04;8.48;;;7.10;;
78796;SDS011;68145;52.514;13.460;2023-06-22T00:55:51;9.73;;;7.95;;
78796;SDS011;68145;52.514;13.460;2023-06-22T00:58:18;11.68;;;8.05;;
78796;SDS011;68145;52.514;13.460;2023-06-22T01:00:47;8.57;;;7.20;;
78796;SDS011;68145;52.514;13.460;2023-06-22T01:03:13;9.20;;;7.43;;
78796;SDS011;68145;52.514;13.460;2023-06-22T01:05:39;9.43;;;7.45;;
78796;SDS011;68145;52.514;13.460;2023-06-22T01:11:00;12.07;;;7.82;;
78796;SDS011;68145;52.514;13.460;2023-06-22T01:13:32;9.63;;;7.03;;
78796;SDS011;68145;52.514;13.460;2023-06-22T01:16:12;11.52;;;7.97;;
78796;SDS011;68145;52.514;13.460;2023-06-22T01:18:41;9.82;;;7.97;;
78796;SDS011;68145;52.514;13.460;2023-06-22T01:21:08;10.25;;;8.43;;
78796;SDS011;68145;52.514;13.460;2023-06-22T01:31:00;11.60;;;9.10;;
78796;SDS011;68145;52.514;13.460;2023-06-22T01:33:32;10.68;;;8.60;;
78796;SDS011;68145;52.514;13.460;2023-06-22T01:36:00;11.75;;;8.65;;
78796;SDS011;68145;52.514;13.460;2023-06-22T01:38:29;11.23;;;9.10;;
78796;SDS011;68145;52.514;13.460;2023-06-22T01:40:58;11.88;;;8.15;;
78796;SDS011;68145;52.514;13.460;2023-06-22T01:43:25;10.15;;;7.53;;
78796;SDS011;68145;52.514;13.460;2023-06-22T01:45:52;12.98;;;9.82;;
78796;SDS011;68145;52.514;13.460;2023-06-22T01:48:19;11.52;;;9.23;;
78796;SDS011;68145;52.514;13.460;2023-06-22T01:50:45;11.48;;;8.80;;
78796;SDS011;68145;52.514;13.460;2023-06-22T01:53:11;13.20;;;9.68;;
78796;SDS011;68145;52.514;13.460;2023-06-22T01:55:37;13.00;;;9.43;;
78796;SDS011;68145;52.514;13.460;2023-06-22T01:58:03;12.00;;;9.07;;
78796;SDS011;68145;52.514;13.460;2023-06-22T02:00:31;12.02;;;9.18;;
78796;SDS011;68145;52.514;13.460;2023-06-22T02:02:59;13.23;;;8.80;;
78796;SDS011;68145;52.514;13.460;2023-06-22T02:05:28;12.20;;;9.18;;
78796;SDS011;68145;52.514;13.460;2023-06-22T02:08:02;12.80;;;9.30;;
78796;SDS011;68145;52.514;13.460;2023-06-22T02:10:32;12.88;;;10.73;;
78796;SDS011;68145;52.514;13.460;2023-06-22T02:13:00;12.88;;;9.88;;
78796;SDS011;68145;52.514;13.460;2023-06-22T02:15:26;11.75;;;8.90;;
78796;SDS011;68145;52.514;13.460;2023-06-22T02:17:53;12.80;;;9.73;;
78796;SDS011;68145;52.514;13.460;2023-06-22T02:20:19;12.05;;;9.77;;
78796;SDS011;68145;52.514;13.460;2023-06-22T02:22:45;13.60;;;9.85;;
78796;SDS011;68145;52.514;13.460;2023-06-22T02:25:11;13.70;;;9.23;;
78796;SDS011;68145;52.514;13.460;2023-06-22T02:27:37;14.15;;;9.85;;
78796;SDS011;68145;52.514;13.460;2023-06-22T02:30:09;12.20;;;9.43;;
78796;SDS011;68145;52.514;13.460;2023-06-22T02:32:35;13.55;;;9.85;;
78796;SDS011;68145;52.514;13.460;2023-06-22T02:35:01;13.40;;;10.18;;
78796;SDS011;68145;52.514;13.460;2023-06-22T02:37:30;14.52;;;11.10;;
78796;SDS011;68145;52.514;13.460;2023-06-22T02:39:56;15.25;;;10.98;;
78796;SDS011;68145;52.514;13.460;2023-06-22T02:42:22;13.05;;;10.80;;
78796;SDS011;68145;52.514;13.460;2023-06-22T02:44:48;14.95;;;10.15;;
78796;SDS011;68145;52.514;13.460;2023-06-22T02:47:15;12.95;;;10.60;;
78796;SDS011;68145;52.514;13.460;2023-06-22T02:49:41;14.68;;;11.10;;
78796;SDS011;68145;52.514;13.460;2023-06-22T02:52:09;12.73;;;10.35;;
78796;SDS011;68145;52.514;13.460;2023-06-22T02:54:35;13.20;;;11.30;;
78796;SDS011;68145;52.514;13.460;2023-06-22T02:57:02;12.40;;;9.85;;
78796;SDS011;68145;52.514;13.460;2023-06-22T02:59:28;13.38;;;11.43;;
78796;SDS011;68145;52.514;13.460;2023-06-22T03:01:54;15.38;;;10.95;;
78796;SDS011;68145;52.514;13.460;2023-06-22T03:04:20;12.63;;;10.13;;
78796;SDS011;68145;52.514;13.460;2023-06-22T03:06:46;14.18;;;10.88;;
78796;SDS011;68145;52.514;13.460;2023-06-22T03:09:16;11.68;;;10.15;;
78796;SDS011;68145;52.514;13.460;2023-06-22T03:11:42;13.25;;;10.57;;
78796;SDS011;68145;52.514;13.460;2023-06-22T03:14:08;11.52;;;9.25;;
78796;SDS011;68145;52.514;13.460;2023-06-22T03:16:34;11.93;;;9.38;;
78796;SDS011;68145;52.514;13.460;2023-06-22T03:19:01;11.68;;;8.85;;
78796;SDS011;68145;52.514;13.460;2023-06-22T03:21:28;11.95;;;8.40;;
78796;SDS011;68145;52.514;13.460;2023-06-22T03:23:54;10.65;;;8.50;;
78796;SDS011;68145;52.514;13.460;2023-06-22T03:26:20;11.52;;;8.50;;
78796;SDS011;68145;52.514;13.460;2023-06-22T03:28:47;11.48;;;7.55;;
78796;SDS011;68145;52.514;13.460;2023-06-22T03:31:13;11.45;;;8.77;;
78796;SDS011;68145;52.514;13.460;2023-06-22T03:33:39;8.65;;;7.13;;
78796;SDS011;68145;52.514;13.460;2023-06-22T03:36:05;10.30;;;7.43;;
78796;SDS011;68145;52.514;13.460;2023-06-22T03:38:32;14.13;;;8.23;;
78796;SDS011;68145;52.514;13.460;2023-06-22T03:40:58;9.70;;;8.50;;
78796;SDS011;68145;52.514;13.460;2023-06-22T03:43:24;11.57;;;8.48;;
78796;SDS011;68145;52.514;13.460;2023-06-22T03:45:50;12.02;;;8.38;;
78796;SDS011;68145;52.514;13.460;2023-06-22T03:48:16;10.77;;;8.02;;
78796;SDS011;68145;52.514;13.460;2023-06-22T03:50:42;8.05;;;6.80;;
78796;SDS011;68145;52.514;13.460;2023-06-22T03:53:09;11.07;;;8.25;;
78796;SDS011;68145;52.514;13.460;2023-06-22T03:55:35;13.85;;;7.80;;
78796;SDS011;68145;52.514;13.460;2023-06-22T03:58:02;8.88;;;6.85;;
78796;SDS011;68145;52.514;13.460;2023-06-22T04:00:31;9.75;;;7.05;;
78796;SDS011;68145;52.514;13.460;2023-06-22T04:02:57;8.75;;;6.68;;
78796;SDS011;68145;52.514;13.460;2023-06-22T04:05:23;11.23;;;6.53;;
78796;SDS011;68145;52.514;13.460;2023-06-22T04:07:49;9.68;;;6.53;;
78796;SDS011;68145;52.514;13.460;2023-06-22T04:10:15;7.53;;;5.68;;
78796;SDS011;68145;52.514;13.460;2023-06-22T04:12:41;7.03;;;5.50;;
78796;SDS011;68145;52.514;13.460;2023-06-22T04:15:07;9.88;;;5.65;;
78796;SDS011;68145;52.514;13.460;2023-06-22T04:17:34;10.38;;;5.65;;
78796;SDS011;68145;52.514;13.460;2023-06-22T04:20:00;13.00;;;6.15;;
78796;SDS011;68145;52.514;13.460;2023-06-22T04:22:26;6.95;;;5.07;;
78796;SDS011;68145;52.514;13.460;2023-06-22T04:24:52;7.78;;;5.63;;
78796;SDS011;68145;52.514;13.460;2023-06-22T04:27:18;8.27;;;5.43;;
78796;SDS011;68145;52.514;13.460;2023-06-22T04:29:44;8.35;;;5.18;;
78796;SDS011;68145;52.514;13.460;2023-06-22T04:32:16;10.63;;;5.10;;
78796;SDS011;68145;52.514;13.460;2023-06-22T04:34:42;7.28;;;4.43;;
78796;SDS011;68145;52.514;13.460;2023-06-22T04:37:08;7.45;;;4.78;;
78796;SDS011;68145;52.514;13.460;2023-06-22T04:39:41;6.75;;;4.65;;
78796;SDS011;68145;52.514;13.460;2023-06-22T04:42:07;8.60;;;4.72;;
78796;SDS011;68145;52.514;13.460;2023-06-22T04:44:33;7.25;;;4.90;;
78796;SDS011;68145;52.514;13.460;2023-06-22T04:47:00;8.23;;;4.97;;
78796;SDS011;68145;52.514;13.460;2023-06-22T04:49:29;6.88;;;4.53;;
78796;SDS011;68145;52.514;13.460;2023-06-22T04:52:00;6.72;;;4.55;;
78796;SDS011;68145;52.514;13.460;2023-06-22T04:54:27;5.55;;;4.43;;
78796;SDS011;68145;52.514;13.460;2023-06-22T04:56:53;6.88;;;4.70;;
78796;SDS011;68145;52.514;13.460;2023-06-22T04:59:22;7.18;;;4.65;;
78796;SDS011;68145;52.514;13.460;2023-06-22T05:01:52;7.72;;;4.90;;
78796;SDS011;68145;52.514;13.460;2023-06-22T05:04:18;5.68;;;4.00;;
78796;SDS011;68145;52.514;13.460;2023-06-22T05:06:44;6.43;;;4.55;;
78796;SDS011;68145;52.514;13.460;2023-06-22T05:09:11;7.07;;;5.20;;
78796;SDS011;68145;52.514;13.460;2023-06-22T05:11:37;8.80;;;5.30;;
78796;SDS011;68145;52.514;13.460;2023-06-22T05:14:03;11.68;;;7.95;;
78796;SDS011;68145;52.514;13.460;2023-06-22T05:16:29;7.15;;;5.40;;
78796;SDS011;68145;52.514;13.460;2023-06-22T05:18:55;7.80;;;5.15;;
78796;SDS011;68145;52.514;13.460;2023-06-22T05:21:22;9.90;;;6.15;;
78796;SDS011;68145;52.514;13.460;2023-06-22T05:23:49;7.82;;;5.18;;
78796;SDS011;68145;52.514;13.460;2023-06-22T05:26:15;10.70;;;5.13;;
78796;SDS011;68145;52.514;13.460;2023-06-22T05:28:41;12.45;;;4.75;;
78796;SDS011;68145;52.514;13.460;2023-06-22T05:31:10;7.35;;;4.45;;
78796;SDS011;68145;52.514;13.460;2023-06-22T05:33:36;6.60;;;4.82;;
78796;SDS011;68145;52.514;13.460;2023-06-22T05:36:03;7.03;;;4.38;;
78796;SDS011;68145;52.514;13.460;2023-06-22T05:38:29;5.72;;;4.78;;
78796;SDS011;68145;52.514;13.460;2023-06-22T05:40:55;7.53;;;5.57;;
78796;SDS011;68145;52.514;13.460;2023-06-22T05:43:21;9.93;;;5.07;;
78796;SDS011;68145;52.514;13.460;2023-06-22T05:45:47;7.15;;;4.78;;
78796;SDS011;68145;52.514;13.460;2023-06-22T05:48:13;6.13;;;5.15;;
78796;SDS011;68145;52.514;13.460;2023-06-22T05:50:39;7.28;;;5.55;;
78796;SDS011;68145;52.514;13.460;2023-06-22T05:53:05;6.70;;;5.07;;
78796;SDS011;68145;52.514;13.460;2023-06-22T05:55:32;8.48;;;5.40;;
78796;SDS011;68145;52.514;13.460;2023-06-22T05:57:58;6.18;;;4.70;;
78796;SDS011;68145;52.514;13.460;2023-06-22T06:00:24;8.65;;;5.45;;
78796;SDS011;68145;52.514;13.460;2023-06-22T06:02:50;7.43;;;5.55;;
78796;SDS011;68145;52.514;13.460;2023-06-22T06:05:16;6.18;;;4.80;;
78796;SDS011;68145;52.514;13.460;2023-06-22T06:07:44;5.85;;;4.55;;
78796;SDS011;68145;52.514;13.460;2023-06-22T06:10:10;7.15;;;4.43;;
78796;SDS011;68145;52.514;13.460;2023-06-22T06:12:36;7.25;;;4.93;;
78796;SDS011;68145;52.514;13.460;2023-06-22T06:15:03;8.20;;;4.38;;
78796;SDS011;68145;52.514;13.460;2023-06-22T06:17:29;8.50;;;4.72;;
78796;SDS011;68145;52.514;13.460;2023-06-22T06:19:56;5.75;;;4.05;;
78796;SDS011;68145;52.514;13.460;2023-06-22T06:22:22;5.43;;;3.97;;
78796;SDS011;68145;52.514;13.460;2023-06-22T06:24:48;6.68;;;4.03;;
78796;SDS011;68145;52.514;13.460;2023-06-22T06:27:15;5.55;;;4.10;;
78796;SDS011;68145;52.514;13.460;2023-06-22T06:29:44;5.95;;;4.25;;
78796;SDS011;68145;52.514;13.460;2023-06-22T06:32:13;6.90;;;4.25;;
78796;SDS011;68145;52.514;13.460;2023-06-22T06:34:40;4.97;;;4.20;;
78796;SDS011;68145;52.514;13.460;2023-06-22T06:37:06;6.72;;;3.97;;
78796;SDS011;68145;52.514;13.460;2023-06-22T06:39:32;5.65;;;3.47;;
78796;SDS011;68145;52.514;13.460;2023-06-22T06:41:58;6.57;;;3.60;;
78796;SDS011;68145;52.514;13.460;2023-06-22T06:44:24;10.40;;;3.72;;
78796;SDS011;68145;52.514;13.460;2023-06-22T06:46:50;4.90;;;3.30;;
78796;SDS011;68145;52.514;13.460;2023-06-22T06:49:16;4.53;;;3.38;;
78796;SDS011;68145;52.514;13.460;2023-06-22T06:51:42;6.28;;;3.38;;
78796;SDS011;68145;52.514;13.460;2023-06-22T06:54:08;4.82;;;3.35;;
78796;SDS011;68145;52.514;13.460;2023-06-22T06:56:34;5.30;;;3.42;;
78796;SDS011;68145;52.514;13.460;2023-06-22T06:59:01;5.22;;;3.50;;
78796;SDS011;68145;52.514;13.460;2023-06-22T07:01:27;5.25;;;3.38;;
78796;SDS011;68145;52.514;13.460;2023-06-22T07:03:58;5.35;;;3.50;;
78796;SDS011;68145;52.514;13.460;2023-06-22T07:06:24;6.35;;;3.50;;
78796;SDS011;68145;52.514;13.460;2023-06-22T07:08:54;4.00;;;3.10;;
78796;SDS011;68145;52.514;13.460;2023-06-22T07:11:20;5.30;;;3.10;;
78796;SDS011;68145;52.514;13.460;2023-06-22T07:13:46;5.43;;;3.40;;
78796;SDS011;68145;52.514;13.460;2023-06-22T07:16:12;5.10;;;3.72;;
78796;SDS011;68145;52.514;13.460;2023-06-22T07:18:39;4.30;;;3.40;;
78796;SDS011;68145;52.514;13.460;2023-06-22T07:21:05;5.93;;;3.72;;
78796;SDS011;68145;52.514;13.460;2023-06-22T07:23:32;7.93;;;3.60;;
78796;SDS011;68145;52.514;13.460;2023-06-22T07:25:58;4.82;;;3.40;;
78796;SDS011;68145;52.514;13.460;2023-06-22T07:28:27;5.75;;;3.30;;
78796;SDS011;68145;52.514;13.460;2023-06-22T07:30:53;8.00;;;4.40;;
78796;SDS011;68145;52.514;13.460;2023-06-22T07:33:19;4.18;;;2.95;;
78796;SDS011;68145;52.514;13.460;2023-06-22T07:35:45;7.22;;;3.20;;
78796;SDS011;68145;52.514;13.460;2023-06-22T07:38:12;9.30;;;3.97;;
78796;SDS011;68145;52.514;13.460;2023-06-22T07:40:39;9.23;;;3.28;;
78796;SDS011;68145;52.514;13.460;2023-06-22T07:43:06;7.95;;;3.38;;
78796;SDS011;68145;52.514;13.460;2023-06-22T07:45:32;6.15;;;3.25;;
78796;SDS011;68145;52.514;13.460;2023-06-22T07:48:00;5.25;;;3.40;;
78796;SDS011;68145;52.514;13.460;2023-06-22T07:50:27;3.60;;;2.60;;
78796;SDS011;68145;52.514;13.460;2023-06-22T07:52:53;6.32;;;2.55;;
78796;SDS011;68145;52.514;13.460;2023-06-22T07:55:19;4.93;;;2.75;;
78796;SDS011;68145;52.514;13.460;2023-06-22T07:57:46;5.05;;;2.55;;
78796;SDS011;68145;52.514;13.460;2023-06-22T08:02:43;3.22;;;2.60;;
78796;SDS011;68145;52.514;13.460;2023-06-22T08:05:10;4.10;;;2.67;;
78796;SDS011;68145;52.514;13.460;2023-06-22T08:07:36;4.35;;;2.92;;
78796;SDS011;68145;52.514;13.460;2023-06-22T08:10:04;4.07;;;2.65;;
78796;SDS011;68145;52.514;13.460;2023-06-22T08:12:30;5.13;;;2.90;;
78796;SDS011;68145;52.514;13.460;2023-06-22T08:14:57;4.20;;;2.45;;
78796;SDS011;68145;52.514;13.460;2023-06-22T08:17:23;5.85;;;2.72;;
78796;SDS011;68145;52.514;13.460;2023-06-22T08:19:49;3.75;;;2.65;;
78796;SDS011;68145;52.514;13.460;2023-06-22T08:22:16;3.63;;;3.00;;
78796;SDS011;68145;52.514;13.460;2023-06-22T08:24:42;4.68;;;3.00;;
78796;SDS011;68145;52.514;13.460;2023-06-22T08:27:09;4.55;;;3.15;;
78796;SDS011;68145;52.514;13.460;2023-06-22T08:29:41;3.90;;;3.08;;
78796;SDS011;68145;52.514;13.460;2023-06-22T08:32:12;3.38;;;2.28;;
78796;SDS011;68145;52.514;13.460;2023-06-22T08:34:38;4.82;;;3.33;;
78796;SDS011;68145;52.514;13.460;2023-06-22T08:37:07;4.47;;;2.92;;
78796;SDS011;68145;52.514;13.460;2023-06-22T08:39:33;5.57;;;3.00;;
78796;SDS011;68145;52.514;13.460;2023-06-22T08:41:59;5.40;;;3.55;;
78796;SDS011;68145;52.514;13.460;2023-06-22T08:44:25;5.25;;;3.60;;
78796;SDS011;68145;52.514;13.460;2023-06-22T08:46:52;6.05;;;3.55;;
78796;SDS011;68145;52.514;13.460;2023-06-22T08:49:18;4.55;;;2.95;;
78796;SDS011;68145;52.514;13.460;2023-06-22T08:51:44;4.70;;;3.28;;
78796;SDS011;68145;52.514;13.460;2023-06-22T08:54:12;4.85;;;3.00;;
78796;SDS011;68145;52.514;13.460;2023-06-22T08:56:38;5.28;;;3.97;;
78796;SDS011;68145;52.514;13.460;2023-06-22T08:59:05;5.25;;;3.97;;
78796;SDS011;68145;52.514;13.460;2023-06-22T09:01:32;6.85;;;4.10;;
78796;SDS011;68145;52.514;13.460;2023-06-22T09:03:59;4.95;;;3.80;;
78796;SDS011;68145;52.514;13.460;2023-06-22T09:06:25;6.13;;;3.60;;
78796;SDS011;68145;52.514;13.460;2023-06-22T09:08:51;6.90;;;3.65;;
78796;SDS011;68145;52.514;13.460;2023-06-22T09:11:17;8.05;;;4.45;;
78796;SDS011;68145;52.514;13.460;2023-06-22T09:13:43;10.38;;;4.25;;
78796;SDS011;68145;52.514;13.460;2023-06-22T09:16:09;7.53;;;3.75;;
78796;SDS011;68145;52.514;13.460;2023-06-22T09:18:37;5.07;;;3.00;;
78796;SDS011;68145;52.514;13.460;2023-06-22T09:21:03;4.25;;;2.75;;
78796;SDS011;68145;52.514;13.460;2023-06-22T09:23:29;13.05;;;4.55;;
78796;SDS011;68145;52.514;13.460;2023-06-22T09:25:55;8.27;;;3.33;;
78796;SDS011;68145;52.514;13.460;2023-06-22T09:28:21;9.25;;;3.80;;
78796;SDS011;68145;52.514;13.460;2023-06-22T09:30:47;7.07;;;3.22;;
78796;SDS011;68145;52.514;13.460;2023-06-22T09:33:13;4.25;;;2.65;;
78796;SDS011;68145;52.514;13.460;2023-06-22T09:35:39;4.68;;;3.03;;
78796;SDS011;68145;52.514;13.460;2023-06-22T09:38:05;7.00;;;3.63;;
78796;SDS011;68145;52.514;13.460;2023-06-22T09:40:31;5.68;;;3.33;;
78796;SDS011;68145;52.514;13.460;2023-06-22T09:43:04;5.13;;;3.55;;
78796;SDS011;68145;52.514;13.460;2023-06-22T09:45:31;4.55;;;3.17;;
78796;SDS011;68145;52.514;13.460;2023-06-22T09:47:57;6.03;;;3.33;;
78796;SDS011;68145;52.514;13.460;2023-06-22T09:50:23;4.90;;;3.35;;
78796;SDS011;68145;52.514;13.460;2023-06-22T09:52:49;7.13;;;3.60;;
78796;SDS011;68145;52.514;13.460;2023-06-22T09:55:19;5.00;;;3.53;;
78796;SDS011;68145;52.514;13.460;2023-06-22T09:57:45;5.63;;;3.72;;
78796;SDS011;68145;52.514;13.460;2023-06-22T10:00:12;6.70;;;2.78;;
78796;SDS011;68145;52.514;13.460;2023-06-22T10:02:39;4.70;;;3.03;;
78796;SDS011;68145;52.514;13.460;2023-06-22T10:05:05;5.72;;;3.35;;
78796;SDS011;68145;52.514;13.460;2023-06-22T10:07:32;5.93;;;3.28;;
78796;SDS011;68145;52.514;13.460;2023-06-22T10:09:58;3.92;;;3.25;;
78796;SDS011;68145;52.514;13.460;2023-06-22T10:12:27;5.30;;;3.50;;
78796;SDS011;68145;52.514;13.460;2023-06-22T10:14:53;6.45;;;3.13;;
78796;SDS011;68145;52.514;13.460;2023-06-22T10:17:19;5.55;;;3.65;;
78796;SDS011;68145;52.514;13.460;2023-06-22T10:19:45;5.07;;;3.60;;
78796;SDS011;68145;52.514;13.460;2023-06-22T10:22:11;4.53;;;3.20;;
78796;SDS011;68145;52.514;13.460;2023-06-22T10:24:37;5.35;;;3.40;;
78796;SDS011;68145;52.514;13.460;2023-06-22T10:27:09;4.35;;;3.70;;
78796;SDS011;68145;52.514;13.460;2023-06-22T10:29:35;6.70;;;3.92;;
78796;SDS011;68145;52.514;13.460;2023-06-22T10:32:01;4.75;;;3.55;;
78796;SDS011;68145;52.514;13.460;2023-06-22T10:34:27;5.30;;;3.50;;
78796;SDS011;68145;52.514;13.460;2023-06-22T10:36:53;5.20;;;3.80;;
78796;SDS011;68145;52.514;13.460;2023-06-22T10:39:19;4.70;;;3.25;;
78796;SDS011;68145;52.514;13.460;2023-06-22T10:41:45;6.07;;;3.45;;
78796;SDS011;68145;52.514;13.460;2023-06-22T10:44:11;3.78;;;3.10;;
78796;SDS011;68145;52.514;13.460;2023-06-22T10:46:38;4.72;;;3.35;;
78796;SDS011;68145;52.514;13.460;2023-06-22T10:49:04;6.45;;;3.70;;
78796;SDS011;68145;52.514;13.460;2023-06-22T10:51:30;4.35;;;3.03;;
78796;SDS011;68145;52.514;13.460;2023-06-22T10:53:57;4.15;;;3.03;;
78796;SDS011;68145;52.514;13.460;2023-06-22T10:56:23;5.30;;;3.78;;
78796;SDS011;68145;52.514;13.460;2023-06-22T10:58:49;3.88;;;3.08;;
78796;SDS011;68145;52.514;13.460;2023-06-22T11:01:15;4.75;;;3.40;;
78796;SDS011;68145;52.514;13.460;2023-06-22T11:03:41;5.50;;;3.58;;
78796;SDS011;68145;52.514;13.460;2023-06-22T11:06:10;5.50;;;3.72;;
78796;SDS011;68145;52.514;13.460;2023-06-22T11:08:36;5.10;;;4.03;;
78796;SDS011;68145;52.514;13.460;2023-06-22T11:11:02;4.63;;;3.55;;
78796;SDS011;68145;52.514;13.460;2023-06-22T11:13:28;5.13;;;4.00;;
78796;SDS011;68145;52.514;13.460;2023-06-22T11:15:54;5.18;;;3.92;;
78796;SDS011;68145;52.514;13.460;2023-06-22T11:18:20;5.25;;;3.38;;
78796;SDS011;68145;52.514;13.460;2023-06-22T11:20:48;7.38;;;4.38;;
78796;SDS011;68145;52.514;13.460;2023-06-22T11:23:14;5.78;;;3.47;;
78796;SDS011;68145;52.514;13.460;2023-06-22T11:25:40;4.93;;;3.88;;
78796;SDS011;68145;52.514;13.460;2023-06-22T11:30:33;5.55;;;3.70;;
78796;SDS011;68145;52.514;13.460;2023-06-22T11:32:59;7.72;;;3.95;;
78796;SDS011;68145;52.514;13.460;2023-06-22T11:35:25;5.95;;;4.00;;
78796;SDS011;68145;52.514;13.460;2023-06-22T11:37:51;4.40;;;3.55;;
78796;SDS011;68145;52.514;13.460;2023-06-22T11:40:17;5.97;;;3.45;;
78796;SDS011;68145;52.514;13.460;2023-06-22T11:42:44;4.78;;;3.35;;
78796;SDS011;68145;52.514;13.460;2023-06-22T11:45:10;5.80;;;3.72;;
78796;SDS011;68145;52.514;13.460;2023-06-22T11:47:36;5.35;;;3.08;;
78796;SDS011;68145;52.514;13.460;2023-06-22T11:50:02;4.60;;;3.20;;
78796;SDS011;68145;52.514;13.460;2023-06-22T11:52:29;5.63;;;3.67;;
78796;SDS011;68145;52.514;13.460;2023-06-22T11:54:55;4.30;;;3.53;;
78796;SDS011;68145;52.514;13.460;2023-06-22T11:57:21;4.55;;;3.42;;
78796;SDS011;68145;52.514;13.460;2023-06-22T11:59:50;4.88;;;3.60;;
78796;SDS011;68145;52.514;13.460;2023-06-22T12:02:16;4.32;;;3.50;;
78796;SDS011;68145;52.514;13.460;2023-06-22T12:04:43;5.25;;;3.90;;
78796;SDS011;68145;52.514;13.460;2023-06-22T12:07:09;5.63;;;3.80;;
78796;SDS011;68145;52.514;13.460;2023-06-22T12:09:35;4.10;;;3.53;;
78796;SDS011;68145;52.514;13.460;2023-06-22T12:12:01;4.68;;;3.40;;
78796;SDS011;68145;52.514;13.460;2023-06-22T12:14:27;5.30;;;3.53;;
78796;SDS011;68145;52.514;13.460;2023-06-22T12:16:53;4.57;;;3.40;;
78796;SDS011;68145;52.514;13.460;2023-06-22T12:19:19;5.47;;;3.70;;
78796;SDS011;68145;52.514;13.460;2023-06-22T12:21:45;7.35;;;5.20;;
78796;SDS011;68145;52.514;13.460;2023-06-22T12:24:11;6.40;;;5.15;;
78796;SDS011;68145;52.514;13.460;2023-06-22T12:26:37;6.63;;;4.07;;
78796;SDS011;68145;52.514;13.460;2023-06-22T12:29:03;4.93;;;3.47;;
78796;SDS011;68145;52.514;13.460;2023-06-22T12:31:29;4.53;;;3.28;;
78796;SDS011;68145;52.514;13.460;2023-06-22T12:33:55;5.25;;;3.78;;
78796;SDS011;68145;52.514;13.460;2023-06-22T12:36:21;5.10;;;3.55;;
78796;SDS011;68145;52.514;13.460;2023-06-22T12:38:47;4.50;;;3.28;;
78796;SDS011;68145;52.514;13.460;2023-06-22T12:41:13;5.32;;;3.42;;
78796;SDS011;68145;52.514;13.460;2023-06-22T12:43:40;4.63;;;3.30;;
78796;SDS011;68145;52.514;13.460;2023-06-22T12:46:06;5.22;;;3.67;;
78796;SDS011;68145;52.514;13.460;2023-06-22T12:48:32;7.35;;;4.15;;
78796;SDS011;68145;52.514;13.460;2023-06-22T12:50:58;5.57;;;3.88;;
78796;SDS011;68145;52.514;13.460;2023-06-22T12:53:24;4.88;;;3.63;;
78796;SDS011;68145;52.514;13.460;2023-06-22T12:55:52;6.10;;;3.65;;
78796;SDS011;68145;52.514;13.460;2023-06-22T12:58:18;5.50;;;4.28;;
78796;SDS011;68145;52.514;13.460;2023-06-22T13:00:44;5.18;;;4.15;;
78796;SDS011;68145;52.514;13.460;2023-06-22T13:03:10;5.35;;;3.70;;
78796;SDS011;68145;52.514;13.460;2023-06-22T13:05:36;6.70;;;3.83;;
78796;SDS011;68145;52.514;13.460;2023-06-22T13:08:03;5.63;;;3.60;;
78796;SDS011;68145;52.514;13.460;2023-06-22T13:10:29;4.72;;;3.65;;
78796;SDS011;68145;52.514;13.460;2023-06-22T13:12:55;6.25;;;3.60;;
78796;SDS011;68145;52.514;13.460;2023-06-22T13:15:26;4.82;;;3.75;;
78796;SDS011;68145;52.514;13.460;2023-06-22T13:20:18;4.78;;;3.60;;
78796;SDS011;68145;52.514;13.460;2023-06-22T13:22:44;6.28;;;4.30;;
78796;SDS011;68145;52.514;13.460;2023-06-22T13:25:10;4.75;;;3.70;;
78796;SDS011;68145;52.514;13.460;2023-06-22T13:30:03;6.40;;;4.20;;
78796;SDS011;68145;52.514;13.460;2023-06-22T13:32:29;6.18;;;3.60;;
78796;SDS011;68145;52.514;13.460;2023-06-22T13:34:55;6.97;;;3.47;;
78796;SDS011;68145;52.514;13.460;2023-06-22T13:37:21;4.05;;;3.30;;
78796;SDS011;68145;52.514;13.460;2023-06-22T13:39:47;4.70;;;3.45;;
78796;SDS011;68145;52.514;13.460;2023-06-22T13:42:13;5.32;;;3.85;;
78796;SDS011;68145;52.514;13.460;2023-06-22T13:44:39;5.13;;;3.80;;
78796;SDS011;68145;52.514;13.460;2023-06-22T13:47:06;6.40;;;4.00;;
78796;SDS011;68145;52.514;13.460;2023-06-22T13:49:32;5.13;;;3.78;;
78796;SDS011;68145;52.514;13.460;2023-06-22T13:51:58;5.45;;;3.97;;
78796;SDS011;68145;52.514;13.460;2023-06-22T13:54:25;6.10;;;4.63;;
78796;SDS011;68145;52.514;13.460;2023-06-22T13:56:51;8.40;;;4.18;;
78796;SDS011;68145;52.514;13.460;2023-06-22T13:59:17;5.05;;;3.92;;
78796;SDS011;68145;52.514;13.460;2023-06-22T14:01:43;7.22;;;4.55;;
78796;SDS011;68145;52.514;13.460;2023-06-22T14:04:09;9.05;;;4.60;;
78796;SDS011;68145;52.514;13.460;2023-06-22T14:06:35;6.38;;;4.18;;
78796;SDS011;68145;52.514;13.460;2023-06-22T14:09:02;4.40;;;3.53;;
78796;SDS011;68145;52.514;13.460;2023-06-22T14:11:28;6.07;;;4.50;;
78796;SDS011;68145;52.514;13.460;2023-06-22T14:13:54;6.68;;;4.97;;
78796;SDS011;68145;52.514;13.460;2023-06-22T14:16:20;5.72;;;3.63;;
78796;SDS011;68145;52.514;13.460;2023-06-22T14:18:46;5.70;;;4.57;;
78796;SDS011;68145;52.514;13.460;2023-06-22T14:21:12;7.22;;;5.13;;
78796;SDS011;68145;52.514;13.460;2023-06-22T14:23:38;8.95;;;5.40;;
78796;SDS011;68145;52.514;13.460;2023-06-22T14:26:04;7.30;;;5.10;;
78796;SDS011;68145;52.514;13.460;2023-06-22T14:28:30;5.90;;;4.50;;
78796;SDS011;68145;52.514;13.460;2023-06-22T14:30:56;6.38;;;4.70;;
78796;SDS011;68145;52.514;13.460;2023-06-22T14:33:23;7.00;;;4.88;;
78796;SDS011;68145;52.514;13.460;2023-06-22T14:35:49;5.18;;;4.43;;
78796;SDS011;68145;52.514;13.460;2023-06-22T14:38:15;6.93;;;4.30;;
78796;SDS011;68145;52.514;13.460;2023-06-22T14:40:41;6.70;;;4.65;;
78796;SDS011;68145;52.514;13.460;2023-06-22T14:43:07;7.53;;;5.10;;
78796;SDS011;68145;52.514;13.460;2023-06-22T14:45:33;5.63;;;4.20;;
78796;SDS011;68145;52.514;13.460;2023-06-22T14:47:59;9.20;;;4.55;;